Maersk Edward — OWVT2 — position and weather

sailwx.info

Track history (hours):
 
Tides and Currents Weather Stations Pressure Air Temp Water Temp Dewpoint Dewpoint Depression Visibility Wind Speed Wind Dir Waves Ship Positions

Maersk Edward

Last reported at 2017-Aug-20 18:22 UTC. Time now 2017-Sep-19 11:51 UTC.
Position N 27°41' W 016°32'.
Warning: this ship's position is 29 days out of date.

Length 186 m; draft 10.4 m.

Type: Tanker. MMSI: 219571000.

Date/timePositionNaut miles runAvg speedWind from/ knotsBaromVisibWave heightAir tempDewpointWater temp
2017-Aug-20 18:22N 27°41' W 016°32'1014.3
2017-Aug-20 17:39N 27°50' W 016°27'314.3
2017-Aug-20 17:27N 27°53' W 016°26'714.1
2017-Aug-20 16:59N 27°59' W 016°23'713.9
2017-Aug-20 16:30N 28°05' W 016°20'1813.6
2017-Aug-20 15:09N 28°22' W 016°12'412.3
2017-Aug-20 14:50N 28°25' W 016°09'1 4.5
2017-Aug-20 14:30N 28°27' W 016°09'1 1.7
2017-Aug-20 14:00N 28°27' W 016°09'7 9.6
2017-Aug-20 13:18N 28°27' W 016°01'512.1
2017-Aug-20 12:53N 28°27' W 015°55'512.8
2017-Aug-20 12:30N 28°31' W 015°52'712.8
2017-Aug-20 11:58N 28°36' W 015°47'712.8
2017-Aug-20 11:27N 28°41' W 015°42'512.4
2017-Aug-20 11:00N 28°46' W 015°38'612.4
2017-Aug-20 10:31N 28°52' W 015°36'612.6
2017-Aug-20 10:00N 28°58' W 015°34'612.4
2017-Aug-20 09:30N 29°04' W 015°32'612.5
2017-Aug-20 09:00N 29°10' W 015°30'612.6
2017-Aug-20 08:30N 29°16' W 015°28'612.7
2017-Aug-20 08:00N 29°22' W 015°26'612.9
2017-Aug-20 07:30N 29°28' W 015°24'612.8
2017-Aug-20 07:00N 29°34' W 015°22'712.6
2017-Aug-20 06:29N 29°41' W 015°20'612.6
2017-Aug-20 06:00N 29°46' W 015°18'612.7
2017-Aug-20 05:30N 29°52' W 015°15'612.9
2017-Aug-20 05:00N 29°58' W 015°13'612.8
2017-Aug-20 04:30N 30°04' W 015°11'612.6
2017-Aug-20 04:00N 30°11' W 015°09'1212.5
2017-Aug-20 03:01N 30°22' W 015°05'113.1
2017-Aug-20 02:58N 30°23' W 015°05'612.7
2017-Aug-20 02:30N 30°29' W 015°03'712.8
2017-Aug-20 01:59N 30°35' W 015°01'612.8
2017-Aug-20 01:30N 30°41' W 014°59'612.8
2017-Aug-20 01:00N 30°47' W 014°57'812.7
2017-Aug-20 00:25N 30°55' W 014°55'512.8
2017-Aug-20 00:00N 30°60' W 014°53'612.8
2017-Aug-19 23:30N 31°06' W 014°51'612.7
2017-Aug-19 23:00N 31°12' W 014°48'612.8
2017-Aug-19 22:30N 31°18' W 014°46'712.8
2017-Aug-19 21:56N 31°25' W 014°43'612.8
2017-Aug-19 21:30N 31°30' W 014°41'712.6
2017-Aug-19 20:59N 31°36' W 014°39'812.7
2017-Aug-19 20:22N 31°44' W 014°36'512.8
2017-Aug-19 19:59N 31°48' W 014°35'713.0
2017-Aug-19 19:27N 31°55' W 014°32'613.1
2017-Aug-19 19:00N 32°01' W 014°31'813.0
2017-Aug-19 18:23N 32°09' W 014°28'513.1
2017-Aug-19 18:00N 32°13' W 014°26'713.0
2017-Aug-19 17:29N 32°20' W 014°24'612.9
2017-Aug-19 17:00N 32°26' W 014°22'712.9
2017-Aug-19 16:29N 32°32' W 014°19'813.1
2017-Aug-19 15:54N 32°39' W 014°17'513.0
2017-Aug-19 15:30N 32°44' W 014°15'1012.9
2017-Aug-19 14:42N 32°54' W 014°11'1012.7
2017-Aug-19 13:56N 33°04' W 014°08'2112.6
2017-Aug-19 12:15N 33°24' W 014°01'512.6
2017-Aug-19 11:54N 33°28' W 013°59'29112.6
2017-Aug-18 12:54N 38°06' W 012°16'512.2
2017-Aug-18 12:30N 38°11' W 012°14'612.3
2017-Aug-18 12:00N 38°17' W 012°12'612.4
2017-Aug-18 11:30N 38°23' W 012°10'612.4
2017-Aug-18 11:00N 38°29' W 012°08'612.5
2017-Aug-18 10:30N 38°35' W 012°06'912.6
2017-Aug-18 09:48N 38°43' W 012°02'512.7
2017-Aug-18 09:23N 38°48' W 012°00'712.6
2017-Aug-18 08:49N 38°55' W 011°57'2012.5
2017-Aug-18 07:12N 39°14' W 011°50'56411.9
2017-Aug-16 07:43N 47°52' W 006°41'8012.8
2017-Aug-16 01:29N 48°59' W 005°36'2110.6
2017-Aug-15 23:28N 49°09' W 005°07'24 8.7
2017-Aug-15 20:40N 49°21' W 004°35'1011.2
2017-Aug-15 19:44N 49°27' W 004°21'311.2
2017-Aug-15 19:28N 49°29' W 004°18'511.5
2017-Aug-15 19:00N 49°32' W 004°11'1011.8
2017-Aug-15 18:12N 49°36' W 003°58'212.1
2017-Aug-15 18:00N 49°38' W 003°55'612.1
2017-Aug-15 17:30N 49°41' W 003°47'612.0
2017-Aug-15 17:00N 49°44' W 003°39'611.7
2017-Aug-15 16:30N 49°47' W 003°31'4 7.4
2017-Aug-15 16:00N 49°49' W 003°27'2 4.8
2017-Aug-15 15:30N 49°50' W 003°23'4 7.2
2017-Aug-15 15:00N 49°52' W 003°18'612.0
2017-Aug-15 14:30N 49°55' W 003°10'611.6
2017-Aug-15 14:00N 49°57' W 003°02'611.2
2017-Aug-15 13:30N 49°59' W 002°54'611.0
2017-Aug-15 13:00N 50°00' W 002°45'510.9
2017-Aug-15 12:30N 50°02' W 002°37'2711.2
2017-Aug-15 10:08N 50°09' W 001°57'112.3
2017-Aug-15 10:01N 50°09' W 001°55'612.9
2017-Aug-15 09:30N 50°11' W 001°45'713.6
2017-Aug-15 09:01N 50°13' W 001°35'714.1
2017-Aug-15 08:31N 50°15' W 001°25'814.6
2017-Aug-15 08:00N 50°17' W 001°13'715.2
2017-Aug-15 07:31N 50°19' W 001°02'815.4
2017-Aug-15 06:59N 50°21' W 000°50'714.8
2017-Aug-15 06:30N 50°23' W 000°39'714.5
2017-Aug-15 06:00N 50°25' W 000°28'714.0
2017-Aug-15 05:30N 50°27' W 000°18'713.6
2017-Aug-15 05:00N 50°29' W 000°07'713.2
2017-Aug-15 04:30N 50°30' E 000°03'612.8
2017-Aug-15 04:00N 50°32' E 000°12'612.3
2017-Aug-15 03:30N 50°34' E 000°22'611.8
2017-Aug-15 03:00N 50°36' E 000°30'611.4
2017-Aug-15 02:30N 50°38' E 000°39'611.6
2017-Aug-15 02:00N 50°41' E 000°46'611.7
2017-Aug-15 01:30N 50°45' E 000°53'612.1
2017-Aug-15 01:00N 50°48' E 001°01'612.8
2017-Aug-15 00:30N 50°53' E 001°08'713.7
2017-Aug-15 00:01N 50°58' E 001°16'714.5
2017-Aug-14 23:30N 51°03' E 001°24'714.8
2017-Aug-14 23:01N 51°07' E 001°33'714.4
2017-Aug-14 22:31N 51°12' E 001°42'713.6
2017-Aug-14 22:00N 51°17' E 001°49'713.0
2017-Aug-14 21:30N 51°23' E 001°54'612.5
2017-Aug-14 21:00N 51°28' E 001°60'612.2
2017-Aug-14 20:30N 51°33' E 002°06'611.6
2017-Aug-14 20:00N 51°37' E 002°12'611.7
2017-Aug-14 19:30N 51°41' E 002°19'611.1
2017-Aug-14 19:00N 51°45' E 002°25'611.1
2017-Aug-14 18:30N 51°50' E 002°30'611.1
2017-Aug-14 18:00N 51°55' E 002°35'611.2
2017-Aug-14 17:26N 52°01' E 002°37'511.7
2017-Aug-14 17:00N 52°06' E 002°38'1212.1
2017-Aug-14 15:59N 52°17' E 002°45'613.3
2017-Aug-14 15:30N 52°23' E 002°50'713.6
2017-Aug-14 15:00N 52°29' E 002°55'713.8
2017-Aug-14 14:30N 52°35' E 003°00'813.9
2017-Aug-14 13:57N 52°42' E 003°05'614.0
2017-Aug-14 13:30N 52°48' E 003°10'3113.6
2017-Aug-14 11:12N 53°17' E 003°27'412.7
2017-Aug-14 10:54N 53°21' E 003°29'1612.3
2017-Aug-14 09:35N 53°36' E 003°38'33412.1
2017-Aug-13 05:51N 57°51' E 010°02'412.2
2017-Aug-13 05:30N 57°51' E 010°11'611.8
2017-Aug-13 04:59N 57°51' E 010°22'611.6
2017-Aug-13 04:30N 57°51' E 010°32'611.5
2017-Aug-13 03:59N 57°50' E 010°43'5 9.7
2017-Aug-13 03:29N 57°49' E 010°52'2 3.2
2017-Aug-13 03:00N 57°48' E 010°52'2 3.4
2017-Aug-13 02:29N 57°46' E 010°52'2 3.6
2017-Aug-13 01:57N 57°44' E 010°53'2 3.6
2017-Aug-13 01:30N 57°42' E 010°53'2 3.5
2017-Aug-13 01:00N 57°42' E 010°56'510.4
2017-Aug-13 00:30N 57°40' E 011°05'511.0
2017-Aug-13 00:00N 57°36' E 011°14'511.0
2017-Aug-12 23:30N 57°33' E 011°22'611.2
2017-Aug-12 23:00N 57°28' E 011°27'612.2
2017-Aug-12 22:30N 57°22' E 011°30'612.3
2017-Aug-12 22:00N 57°16' E 011°33'612.0
2017-Aug-12 21:30N 57°11' E 011°37'611.9
2017-Aug-12 21:00N 57°05' E 011°41'5011.0
2017-Aug-12 16:29N 56°17' E 011°22'712.9
2017-Aug-12 15:58N 56°11' E 011°17'612.6
2017-Aug-12 15:30N 56°06' E 011°10'612.4
2017-Aug-12 15:00N 56°01' E 011°05'611.6
2017-Aug-12 14:29N 55°56' E 010°59'612.9
2017-Aug-12 14:00N 55°51' E 010°52'612.5
2017-Aug-12 13:29N 55°45' E 010°48'712.8
2017-Aug-12 12:59N 55°39' E 010°47'713.3
2017-Aug-12 12:29N 55°32' E 010°51'612.7
2017-Aug-12 12:00N 55°27' E 010°57'612.5
2017-Aug-12 11:29N 55°22' E 011°02'612.9
2017-Aug-12 10:59N 55°15' E 011°05'611.6
2017-Aug-12 10:30N 55°10' E 011°03'613.0
2017-Aug-12 10:00N 55°03' E 011°01'612.9
2017-Aug-12 09:30N 54°58' E 010°56'613.0
2017-Aug-12 09:00N 54°52' E 010°50'612.9
2017-Aug-12 08:30N 54°46' E 010°48'510.2
2017-Aug-12 08:00N 54°41' E 010°47'4 7.6
2017-Aug-12 07:30N 54°39' E 010°53'612.1
2017-Aug-12 07:00N 54°36' E 011°02'612.4
2017-Aug-12 06:30N 54°35' E 011°13'612.2
2017-Aug-12 06:00N 54°33' E 011°22'611.8
2017-Aug-12 05:30N 54°30' E 011°32'611.9
2017-Aug-12 05:00N 54°28' E 011°41'611.8
2017-Aug-12 04:30N 54°27' E 011°51'611.7
2017-Aug-12 04:00N 54°27' E 012°01'611.6
2017-Aug-12 03:30N 54°27' E 012°11'612.6
2017-Aug-12 03:00N 54°33' E 012°15'612.2
2017-Aug-12 02:30N 54°38' E 012°21'812.6
2017-Aug-12 01:54N 54°42' E 012°32'612.7
2017-Aug-12 01:26N 54°45' E 012°41'2411.7
2017-Aug-11 23:21N 54°55' E 013°20'512.6
2017-Aug-11 22:59N 54°56' E 013°27'612.6
2017-Aug-11 22:30N 54°59' E 013°37'612.7
2017-Aug-11 22:00N 55°01' E 013°47'612.7
2017-Aug-11 21:30N 55°03' E 013°57'612.5
2017-Aug-11 21:00N 55°06' E 014°07'612.6
2017-Aug-11 20:30N 55°11' E 014°14'612.6
2017-Aug-11 20:00N 55°16' E 014°21'612.5
2017-Aug-11 19:30N 55°21' E 014°28'612.5
2017-Aug-11 19:00N 55°26' E 014°35'612.7
2017-Aug-11 18:30N 55°29' E 014°44'612.9
2017-Aug-11 18:00N 55°32' E 014°54'612.9
2017-Aug-11 17:30N 55°36' E 015°04'812.8
2017-Aug-11 16:53N 55°40' E 015°16'512.7
2017-Aug-11 16:30N 55°42' E 015°24'612.5
2017-Aug-11 16:00N 55°45' E 015°33'612.6
2017-Aug-11 15:30N 55°48' E 015°43'612.8
2017-Aug-11 15:00N 55°52' E 015°52'1212.5
2017-Aug-11 14:00N 55°58' E 016°12'612.5
2017-Aug-11 13:30N 56°01' E 016°22'612.5
2017-Aug-11 13:00N 56°04' E 016°32'612.6
2017-Aug-11 12:30N 56°08' E 016°41'612.7
2017-Aug-11 12:00N 56°11' E 016°50'15212.6
2017-Aug-10 23:58N 57°58' E 020°07'612.7
2017-Aug-10 23:30N 58°03' E 020°13'612.6
2017-Aug-10 23:00N 58°09' E 020°20'612.7
2017-Aug-10 22:30N 58°14' E 020°27'612.7
2017-Aug-10 22:00N 58°19' E 020°34'612.6
2017-Aug-10 21:30N 58°24' E 020°40'612.6
2017-Aug-10 21:00N 58°30' E 020°47'612.7
2017-Aug-10 20:30N 58°35' E 020°54'612.6
2017-Aug-10 20:00N 58°40' E 021°01'612.5
2017-Aug-10 19:30N 58°45' E 021°07'612.6
2017-Aug-10 19:00N 58°50' E 021°14'612.6
2017-Aug-10 18:30N 58°56' E 021°21'  
Track history (hours):
 
Tides and Currents Weather Stations Pressure Air Temp Water Temp Dewpoint Dewpoint Depression Visibility Wind Speed Wind Dir Waves Ship Positions

Maersk Edward

Last reported at 2017-Aug-20 18:22 UTC. Time now 2017-Sep-19 11:51 UTC.
Position N 27°41' W 016°32'.
Warning: this ship's position is 29 days out of date.

Length 186 m; draft 10.4 m.

Type: Tanker. MMSI: 219571000.

Date/timePositionNaut miles runAvg speedWind from/ knotsBaromVisibWave heightAir tempDewpointWater temp
2017-Aug-20 18:22N 27°41' W 016°32'1014.3
2017-Aug-20 17:39N 27°50' W 016°27'314.3
2017-Aug-20 17:27N 27°53' W 016°26'714.1
2017-Aug-20 16:59N 27°59' W 016°23'713.9
2017-Aug-20 16:30N 28°05' W 016°20'1813.6
2017-Aug-20 15:09N 28°22' W 016°12'412.3
2017-Aug-20 14:50N 28°25' W 016°09'1 4.5
2017-Aug-20 14:30N 28°27' W 016°09'1 1.7
2017-Aug-20 14:00N 28°27' W 016°09'7 9.6
2017-Aug-20 13:18N 28°27' W 016°01'512.1
2017-Aug-20 12:53N 28°27' W 015°55'512.8
2017-Aug-20 12:30N 28°31' W 015°52'712.8
2017-Aug-20 11:58N 28°36' W 015°47'712.8
2017-Aug-20 11:27N 28°41' W 015°42'512.4
2017-Aug-20 11:00N 28°46' W 015°38'612.4
2017-Aug-20 10:31N 28°52' W 015°36'612.6
2017-Aug-20 10:00N 28°58' W 015°34'612.4
2017-Aug-20 09:30N 29°04' W 015°32'612.5
2017-Aug-20 09:00N 29°10' W 015°30'612.6
2017-Aug-20 08:30N 29°16' W 015°28'612.7
2017-Aug-20 08:00N 29°22' W 015°26'612.9
2017-Aug-20 07:30N 29°28' W 015°24'612.8
2017-Aug-20 07:00N 29°34' W 015°22'712.6
2017-Aug-20 06:29N 29°41' W 015°20'612.6
2017-Aug-20 06:00N 29°46' W 015°18'612.7
2017-Aug-20 05:30N 29°52' W 015°15'612.9
2017-Aug-20 05:00N 29°58' W 015°13'612.8
2017-Aug-20 04:30N 30°04' W 015°11'612.6
2017-Aug-20 04:00N 30°11' W 015°09'1212.5
2017-Aug-20 03:01N 30°22' W 015°05'113.1
2017-Aug-20 02:58N 30°23' W 015°05'612.7
2017-Aug-20 02:30N 30°29' W 015°03'712.8
2017-Aug-20 01:59N 30°35' W 015°01'612.8
2017-Aug-20 01:30N 30°41' W 014°59'612.8
2017-Aug-20 01:00N 30°47' W 014°57'812.7
2017-Aug-20 00:25N 30°55' W 014°55'512.8
2017-Aug-20 00:00N 30°60' W 014°53'612.8
2017-Aug-19 23:30N 31°06' W 014°51'612.7
2017-Aug-19 23:00N 31°12' W 014°48'612.8
2017-Aug-19 22:30N 31°18' W 014°46'712.8
2017-Aug-19 21:56N 31°25' W 014°43'612.8
2017-Aug-19 21:30N 31°30' W 014°41'712.6
2017-Aug-19 20:59N 31°36' W 014°39'812.7
2017-Aug-19 20:22N 31°44' W 014°36'512.8
2017-Aug-19 19:59N 31°48' W 014°35'713.0
2017-Aug-19 19:27N 31°55' W 014°32'613.1
2017-Aug-19 19:00N 32°01' W 014°31'813.0
2017-Aug-19 18:23N 32°09' W 014°28'513.1
2017-Aug-19 18:00N 32°13' W 014°26'713.0
2017-Aug-19 17:29N 32°20' W 014°24'612.9
2017-Aug-19 17:00N 32°26' W 014°22'712.9
2017-Aug-19 16:29N 32°32' W 014°19'813.1
2017-Aug-19 15:54N 32°39' W 014°17'513.0
2017-Aug-19 15:30N 32°44' W 014°15'1012.9
2017-Aug-19 14:42N 32°54' W 014°11'1012.7
2017-Aug-19 13:56N 33°04' W 014°08'2112.6
2017-Aug-19 12:15N 33°24' W 014°01'512.6
2017-Aug-19 11:54N 33°28' W 013°59'29112.6
2017-Aug-18 12:54N 38°06' W 012°16'512.2
2017-Aug-18 12:30N 38°11' W 012°14'612.3
2017-Aug-18 12:00N 38°17' W 012°12'612.4
2017-Aug-18 11:30N 38°23' W 012°10'612.4
2017-Aug-18 11:00N 38°29' W 012°08'612.5
2017-Aug-18 10:30N 38°35' W 012°06'912.6
2017-Aug-18 09:48N 38°43' W 012°02'512.7
2017-Aug-18 09:23N 38°48' W 012°00'712.6
2017-Aug-18 08:49N 38°55' W 011°57'2012.5
2017-Aug-18 07:12N 39°14' W 011°50'56411.9
2017-Aug-16 07:43N 47°52' W 006°41'8012.8
2017-Aug-16 01:29N 48°59' W 005°36'2110.6
2017-Aug-15 23:28N 49°09' W 005°07'24 8.7
2017-Aug-15 20:40N 49°21' W 004°35'1011.2
2017-Aug-15 19:44N 49°27' W 004°21'311.2
2017-Aug-15 19:28N 49°29' W 004°18'511.5
2017-Aug-15 19:00N 49°32' W 004°11'1011.8
2017-Aug-15 18:12N 49°36' W 003°58'212.1
2017-Aug-15 18:00N 49°38' W 003°55'612.1
2017-Aug-15 17:30N 49°41' W 003°47'612.0
2017-Aug-15 17:00N 49°44' W 003°39'611.7
2017-Aug-15 16:30N 49°47' W 003°31'4 7.4
2017-Aug-15 16:00N 49°49' W 003°27'2 4.8
2017-Aug-15 15:30N 49°50' W 003°23'4 7.2
2017-Aug-15 15:00N 49°52' W 003°18'612.0
2017-Aug-15 14:30N 49°55' W 003°10'611.6
2017-Aug-15 14:00N 49°57' W 003°02'611.2
2017-Aug-15 13:30N 49°59' W 002°54'611.0
2017-Aug-15 13:00N 50°00' W 002°45'510.9
2017-Aug-15 12:30N 50°02' W 002°37'2711.2
2017-Aug-15 10:08N 50°09' W 001°57'112.3
2017-Aug-15 10:01N 50°09' W 001°55'612.9
2017-Aug-15 09:30N 50°11' W 001°45'713.6
2017-Aug-15 09:01N 50°13' W 001°35'714.1
2017-Aug-15 08:31N 50°15' W 001°25'814.6
2017-Aug-15 08:00N 50°17' W 001°13'715.2
2017-Aug-15 07:31N 50°19' W 001°02'815.4
2017-Aug-15 06:59N 50°21' W 000°50'714.8
2017-Aug-15 06:30N 50°23' W 000°39'714.5
2017-Aug-15 06:00N 50°25' W 000°28'714.0
2017-Aug-15 05:30N 50°27' W 000°18'713.6
2017-Aug-15 05:00N 50°29' W 000°07'713.2
2017-Aug-15 04:30N 50°30' E 000°03'612.8
2017-Aug-15 04:00N 50°32' E 000°12'612.3
2017-Aug-15 03:30N 50°34' E 000°22'611.8
2017-Aug-15 03:00N 50°36' E 000°30'611.4
2017-Aug-15 02:30N 50°38' E 000°39'611.6
2017-Aug-15 02:00N 50°41' E 000°46'611.7
2017-Aug-15 01:30N 50°45' E 000°53'612.1
2017-Aug-15 01:00N 50°48' E 001°01'612.8
2017-Aug-15 00:30N 50°53' E 001°08'713.7
2017-Aug-15 00:01N 50°58' E 001°16'714.5
2017-Aug-14 23:30N 51°03' E 001°24'714.8
2017-Aug-14 23:01N 51°07' E 001°33'714.4
2017-Aug-14 22:31N 51°12' E 001°42'713.6
2017-Aug-14 22:00N 51°17' E 001°49'713.0
2017-Aug-14 21:30N 51°23' E 001°54'612.5
2017-Aug-14 21:00N 51°28' E 001°60'612.2
2017-Aug-14 20:30N 51°33' E 002°06'611.6
2017-Aug-14 20:00N 51°37' E 002°12'611.7
2017-Aug-14 19:30N 51°41' E 002°19'611.1
2017-Aug-14 19:00N 51°45' E 002°25'611.1
2017-Aug-14 18:30N 51°50' E 002°30'611.1
2017-Aug-14 18:00N 51°55' E 002°35'611.2
2017-Aug-14 17:26N 52°01' E 002°37'511.7
2017-Aug-14 17:00N 52°06' E 002°38'1212.1
2017-Aug-14 15:59N 52°17' E 002°45'613.3
2017-Aug-14 15:30N 52°23' E 002°50'713.6
2017-Aug-14 15:00N 52°29' E 002°55'713.8
2017-Aug-14 14:30N 52°35' E 003°00'813.9
2017-Aug-14 13:57N 52°42' E 003°05'614.0
2017-Aug-14 13:30N 52°48' E 003°10'3113.6
2017-Aug-14 11:12N 53°17' E 003°27'412.7
2017-Aug-14 10:54N 53°21' E 003°29'1612.3
2017-Aug-14 09:35N 53°36' E 003°38'33412.1
2017-Aug-13 05:51N 57°51' E 010°02'412.2
2017-Aug-13 05:30N 57°51' E 010°11'611.8
2017-Aug-13 04:59N 57°51' E 010°22'611.6
2017-Aug-13 04:30N 57°51' E 010°32'611.5
2017-Aug-13 03:59N 57°50' E 010°43'5 9.7
2017-Aug-13 03:29N 57°49' E 010°52'2 3.2
2017-Aug-13 03:00N 57°48' E 010°52'2 3.4
2017-Aug-13 02:29N 57°46' E 010°52'2 3.6
2017-Aug-13 01:57N 57°44' E 010°53'2 3.6
2017-Aug-13 01:30N 57°42' E 010°53'2 3.5
2017-Aug-13 01:00N 57°42' E 010°56'510.4
2017-Aug-13 00:30N 57°40' E 011°05'511.0
2017-Aug-13 00:00N 57°36' E 011°14'511.0
2017-Aug-12 23:30N 57°33' E 011°22'611.2
2017-Aug-12 23:00N 57°28' E 011°27'612.2
2017-Aug-12 22:30N 57°22' E 011°30'612.3
2017-Aug-12 22:00N 57°16' E 011°33'612.0
2017-Aug-12 21:30N 57°11' E 011°37'611.9
2017-Aug-12 21:00N 57°05' E 011°41'5011.0
2017-Aug-12 16:29N 56°17' E 011°22'712.9
2017-Aug-12 15:58N 56°11' E 011°17'612.6
2017-Aug-12 15:30N 56°06' E 011°10'612.4
2017-Aug-12 15:00N 56°01' E 011°05'611.6
2017-Aug-12 14:29N 55°56' E 010°59'612.9
2017-Aug-12 14:00N 55°51' E 010°52'612.5
2017-Aug-12 13:29N 55°45' E 010°48'712.8
2017-Aug-12 12:59N 55°39' E 010°47'713.3
2017-Aug-12 12:29N 55°32' E 010°51'612.7
2017-Aug-12 12:00N 55°27' E 010°57'612.5
2017-Aug-12 11:29N 55°22' E 011°02'612.9
2017-Aug-12 10:59N 55°15' E 011°05'611.6
2017-Aug-12 10:30N 55°10' E 011°03'613.0
2017-Aug-12 10:00N 55°03' E 011°01'612.9
2017-Aug-12 09:30N 54°58' E 010°56'613.0
2017-Aug-12 09:00N 54°52' E 010°50'612.9
2017-Aug-12 08:30N 54°46' E 010°48'510.2
2017-Aug-12 08:00N 54°41' E 010°47'4 7.6
2017-Aug-12 07:30N 54°39' E 010°53'612.1
2017-Aug-12 07:00N 54°36' E 011°02'612.4
2017-Aug-12 06:30N 54°35' E 011°13'612.2
2017-Aug-12 06:00N 54°33' E 011°22'611.8
2017-Aug-12 05:30N 54°30' E 011°32'611.9
2017-Aug-12 05:00N 54°28' E 011°41'611.8
2017-Aug-12 04:30N 54°27' E 011°51'611.7
2017-Aug-12 04:00N 54°27' E 012°01'611.6
2017-Aug-12 03:30N 54°27' E 012°11'612.6
2017-Aug-12 03:00N 54°33' E 012°15'612.2
2017-Aug-12 02:30N 54°38' E 012°21'812.6
2017-Aug-12 01:54N 54°42' E 012°32'612.7
2017-Aug-12 01:26N 54°45' E 012°41'2411.7
2017-Aug-11 23:21N 54°55' E 013°20'512.6
2017-Aug-11 22:59N 54°56' E 013°27'612.6
2017-Aug-11 22:30N 54°59' E 013°37'612.7
2017-Aug-11 22:00N 55°01' E 013°47'612.7
2017-Aug-11 21:30N 55°03' E 013°57'612.5
2017-Aug-11 21:00N 55°06' E 014°07'612.6
2017-Aug-11 20:30N 55°11' E 014°14'612.6
2017-Aug-11 20:00N 55°16' E 014°21'612.5
2017-Aug-11 19:30N 55°21' E 014°28'612.5
2017-Aug-11 19:00N 55°26' E 014°35'612.7
2017-Aug-11 18:30N 55°29' E 014°44'612.9
2017-Aug-11 18:00N 55°32' E 014°54'612.9
2017-Aug-11 17:30N 55°36' E 015°04'812.8
2017-Aug-11 16:53N 55°40' E 015°16'512.7
2017-Aug-11 16:30N 55°42' E 015°24'612.5
2017-Aug-11 16:00N 55°45' E 015°33'612.6
2017-Aug-11 15:30N 55°48' E 015°43'612.8
2017-Aug-11 15:00N 55°52' E 015°52'1212.5
2017-Aug-11 14:00N 55°58' E 016°12'612.5
2017-Aug-11 13:30N 56°01' E 016°22'612.5
2017-Aug-11 13:00N 56°04' E 016°32'612.6
2017-Aug-11 12:30N 56°08' E 016°41'612.7
2017-Aug-11 12:00N 56°11' E 016°50'15212.6
2017-Aug-10 23:58N 57°58' E 020°07'612.7
2017-Aug-10 23:30N 58°03' E 020°13'612.6
2017-Aug-10 23:00N 58°09' E 020°20'612.7
2017-Aug-10 22:30N 58°14' E 020°27'612.7
2017-Aug-10 22:00N 58°19' E 020°34'612.6
2017-Aug-10 21:30N 58°24' E 020°40'612.6
2017-Aug-10 21:00N 58°30' E 020°47'612.7
2017-Aug-10 20:30N 58°35' E 020°54'612.6
2017-Aug-10 20:00N 58°40' E 021°01'612.5
2017-Aug-10 19:30N 58°45' E 021°07'612.6
2017-Aug-10 19:00N 58°50' E 021°14'612.6
2017-Aug-10 18:30N 58°56' E 021°21'  

Dump ship's entire track history